createdAt,value
2022-11-03T00:01:57.096Z,101371.25
2022-11-03T00:04:23.838Z,101365.84
2022-11-03T00:06:54.822Z,101365.22
2022-11-03T00:09:22.516Z,101358.06
2022-11-03T00:11:53.155Z,101357.47
2022-11-03T00:14:19.909Z,101354.03
2022-11-03T00:16:46.665Z,101345.88
2022-11-03T00:19:17.427Z,101342.28
2022-11-03T00:21:44.869Z,101339.38
2022-11-03T00:24:11.812Z,101336.09
2022-11-03T00:26:39.113Z,101335.28
2022-11-03T00:29:11.250Z,101332.53
2022-11-03T00:31:40.128Z,101331.47
2022-11-03T00:34:07.293Z,101325.25
2022-11-03T00:36:39.136Z,101325.78
2022-11-03T00:39:06.337Z,101325.31
2022-11-03T00:41:32.850Z,101329.69
2022-11-03T00:43:59.568Z,101318.50
2022-11-03T00:46:26.862Z,101316.53
2022-11-03T00:48:53.243Z,101310.78
2022-11-03T00:51:25.397Z,101317.81
2022-11-03T00:54:00.240Z,101323.81
2022-11-03T00:56:41.122Z,101318.31
2022-11-03T00:59:09.856Z,101313.13
2022-11-03T01:01:45.319Z,101317.59
2022-11-03T01:04:32.475Z,101307.47
2022-11-03T01:07:00.347Z,101312.44
2022-11-03T01:09:34.739Z,101301.13
2022-11-03T01:12:05.194Z,101297.53
2022-11-03T01:14:35.868Z,101300.84
2022-11-03T01:17:08.158Z,101293.13
2022-11-03T01:19:34.609Z,101291.63
2022-11-03T01:22:01.022Z,101291.56
2022-11-03T01:24:27.499Z,101291.38
2022-11-03T01:26:53.921Z,101286.22
2022-11-03T01:29:20.654Z,101279.03
2022-11-03T01:31:47.632Z,101276.38
2022-11-03T01:34:16.527Z,101272.56
2022-11-03T01:36:43.961Z,101269.84
2022-11-03T01:39:12.340Z,101266.41
2022-11-03T01:41:38.978Z,101265.00
2022-11-03T01:44:08.337Z,101260.28
2022-11-03T01:46:46.178Z,101251.53
2022-11-03T01:49:41.673Z,101256.56
2022-11-03T01:52:16.028Z,101254.06
2022-11-03T01:54:44.454Z,101249.25
2022-11-03T01:57:17.225Z,101251.94
2022-11-03T01:59:46.037Z,101243.88
2022-11-03T02:02:12.891Z,101239.72
2022-11-03T02:04:39.858Z,101249.56
2022-11-03T02:09:55.810Z,101237.84
2022-11-03T02:12:22.888Z,101238.72
2022-11-03T02:14:54.589Z,101235.16
2022-11-03T02:17:23.671Z,101244.06
2022-11-03T02:20:04.687Z,101233.88
2022-11-03T02:22:52.083Z,101227.88
2022-11-03T02:25:39.962Z,101225.56
2022-11-03T02:28:06.553Z,101225.31
2022-11-03T02:30:43.771Z,101233.31
2022-11-03T02:33:28.256Z,101222.84
2022-11-03T02:36:07.066Z,101229.88
2022-11-03T02:38:38.136Z,101214.94
2022-11-03T02:41:08.478Z,101222.00
2022-11-03T02:43:35.172Z,101211.16
2022-11-03T02:46:05.055Z,101207.66
2022-11-03T02:48:32.488Z,101205.84
2022-11-03T02:50:58.935Z,101206.25
2022-11-03T02:53:28.889Z,101201.19
2022-11-03T02:56:06.511Z,101207.53
2022-11-03T02:58:57.304Z,101217.06
2022-11-03T03:01:32.544Z,101206.47
2022-11-03T03:04:03.325Z,101207.06
2022-11-03T03:06:42.110Z,101212.63
2022-11-03T03:09:15.688Z,101210.19
2022-11-03T03:11:44.407Z,101215.53
2022-11-03T03:14:13.540Z,101205.84
2022-11-03T03:16:52.786Z,101206.16
2022-11-03T03:19:30.760Z,101181.31
2022-11-03T03:22:01.276Z,101176.22
2022-11-03T03:24:37.470Z,101177.16
2022-11-03T03:27:11.401Z,101170.00
2022-11-03T03:29:54.492Z,101157.81
2022-11-03T03:32:24.284Z,101150.09
2022-11-03T03:34:53.202Z,101151.28
2022-11-03T03:37:22.944Z,101146.72
2022-11-03T03:39:55.089Z,101146.72
2022-11-03T03:42:24.918Z,101144.03
2022-11-03T03:44:52.850Z,101155.72
2022-11-03T03:47:24.355Z,101159.28
2022-11-03T03:49:51.038Z,101153.94
2022-11-03T03:52:17.864Z,101153.72
2022-11-03T03:54:44.386Z,101143.22
2022-11-03T03:57:16.082Z,101137.28
2022-11-03T03:59:45.633Z,101135.44
2022-11-03T04:02:13.156Z,101144.56
2022-11-03T04:04:39.690Z,101132.81
2022-11-03T04:07:25.318Z,101131.13
2022-11-03T04:09:52.063Z,101131.88
2022-11-03T04:12:37.042Z,101137.34
2022-11-03T04:15:22.957Z,101133.56
2022-11-03T04:18:08.746Z,101120.91
2022-11-03T04:20:53.824Z,101114.16
2022-11-03T04:23:20.341Z,101108.00
2022-11-03T04:25:57.007Z,101106.75
2022-11-03T04:28:25.548Z,101097.97
2022-11-03T04:30:54.687Z,101098.94
2022-11-03T04:33:24.462Z,101097.53
2022-11-03T04:35:59.226Z,101103.59
2022-11-03T04:38:27.226Z,101103.00
2022-11-03T04:40:58.449Z,101113.38
2022-11-03T04:43:34.342Z,101112.44
2022-11-03T04:46:01.283Z,101105.31
2022-11-03T04:48:29.332Z,101101.97
2022-11-03T04:50:59.119Z,101105.00
2022-11-03T04:53:32.765Z,101110.28
2022-11-03T04:56:04.437Z,101106.00
2022-11-03T04:58:35.679Z,101105.84
2022-11-03T05:01:03.509Z,101109.72
2022-11-03T05:03:33.918Z,101109.06
2022-11-03T05:06:27.457Z,101094.44
2022-11-03T05:09:00.349Z,101095.09
2022-11-03T05:11:35.180Z,101077.88
2022-11-03T05:14:22.977Z,101092.72
2022-11-03T05:16:51.647Z,101089.44
2022-11-03T05:19:22.532Z,101093.09
2022-11-03T05:21:50.716Z,101099.13
2022-11-03T05:24:19.401Z,101095.56
2022-11-03T05:26:45.923Z,101101.94
2022-11-03T05:29:23.956Z,101085.66
2022-11-03T05:31:55.480Z,101088.28
2022-11-03T05:34:30.068Z,101074.44
2022-11-03T05:37:30.813Z,101079.91
2022-11-03T05:40:10.460Z,101069.16
2022-11-03T05:42:41.753Z,101061.38
2022-11-03T05:45:23.058Z,101065.25
2022-11-03T05:47:53.453Z,101059.41
2022-11-03T05:50:28.069Z,101056.88
2022-11-03T05:53:00.309Z,101051.59
2022-11-03T05:55:33.238Z,101060.59
2022-11-03T05:58:05.311Z,101057.63
2022-11-03T06:00:37.603Z,101051.47
2022-11-03T06:03:05.052Z,101048.19
2022-11-03T06:05:33.561Z,101050.00
2022-11-03T06:08:03.855Z,101044.59
2022-11-03T06:10:41.916Z,101042.63
2022-11-03T06:13:16.228Z,101038.91
2022-11-03T06:15:45.624Z,101033.47
2022-11-03T06:18:18.797Z,101031.75
2022-11-03T06:20:52.618Z,101030.06
2022-11-03T06:23:20.803Z,101024.63
2022-11-03T06:25:50.321Z,101026.19
2022-11-03T06:28:24.820Z,101031.47
2022-11-03T06:30:52.268Z,101028.06
2022-11-03T06:33:21.941Z,101014.06
2022-11-03T06:35:51.257Z,101009.63
2022-11-03T06:38:25.638Z,101022.78
2022-11-03T06:40:53.365Z,101022.78
2022-11-03T06:43:22.827Z,101009.50
2022-11-03T06:45:52.137Z,101019.19
2022-11-03T06:48:25.045Z,101016.56
2022-11-03T06:50:52.601Z,101009.63
2022-11-03T06:53:29.543Z,101025.06
2022-11-03T06:55:56.261Z,101009.63
2022-11-03T06:58:37.096Z,101012.78
2022-11-03T07:01:12.627Z,101025.69
2022-11-03T07:03:39.309Z,101022.75
2022-11-03T07:06:17.747Z,101022.03
2022-11-03T07:08:56.497Z,101019.81
2022-11-03T07:11:25.815Z,101016.19
2022-11-03T07:13:56.578Z,101020.75
2022-11-03T07:16:33.493Z,101024.97
2022-11-03T07:19:03.181Z,101025.75
2022-11-03T07:22:00.987Z,101035.16
2022-11-03T07:24:31.633Z,101030.38
2022-11-03T07:27:20.893Z,101035.44
2022-11-03T07:29:49.505Z,101024.81
2022-11-03T07:32:19.577Z,101021.84
2022-11-03T07:34:47.594Z,101025.19
2022-11-03T07:37:18.587Z,101023.88
2022-11-03T07:39:45.247Z,101017.66
2022-11-03T07:42:22.407Z,101019.38
2022-11-03T07:44:50.177Z,101024.03
2022-11-03T07:47:20.388Z,101012.16
2022-11-03T07:49:47.477Z,101013.22
2022-11-03T07:52:21.174Z,101007.72
2022-11-03T07:54:47.816Z,101006.31
2022-11-03T07:57:26.267Z,101002.63
2022-11-03T08:00:20.977Z,101009.13
2022-11-03T08:02:56.285Z,101001.81
2022-11-03T08:05:22.765Z,101002.53
2022-11-03T08:07:49.267Z,100990.78
2022-11-03T08:10:15.969Z,100994.03
2022-11-03T08:12:42.402Z,100983.38
2022-11-03T08:15:09.391Z,100974.25
2022-11-03T08:17:35.841Z,100977.38
2022-11-03T08:20:02.280Z,100975.81
2022-11-03T08:22:28.734Z,100968.28
2022-11-03T08:24:55.161Z,100970.22
2022-11-03T08:27:21.691Z,100963.97
2022-11-03T08:29:48.145Z,100962.03
2022-11-03T08:32:14.604Z,100958.63
2022-11-03T08:34:41.050Z,100952.94
2022-11-03T08:37:07.447Z,100955.41
2022-11-03T08:39:36.249Z,100952.84
2022-11-03T08:42:02.773Z,100942.91
2022-11-03T08:44:29.191Z,100932.66
2022-11-03T08:46:55.646Z,100928.03
2022-11-03T08:49:22.081Z,100936.59
2022-11-03T08:51:48.517Z,100937.53
2022-11-03T08:54:14.934Z,100934.84
2022-11-03T08:56:41.363Z,100929.72
2022-11-03T08:59:07.755Z,100926.22
2022-11-03T09:01:34.265Z,100915.59
2022-11-03T09:04:00.888Z,100918.31
2022-11-03T09:06:27.341Z,100915.97
2022-11-03T09:11:40.185Z,100907.53
2022-11-03T09:14:06.658Z,100896.91
2022-11-03T09:16:33.054Z,100898.94
2022-11-03T09:18:59.445Z,100887.06
2022-11-03T09:21:25.897Z,100894.91
2022-11-03T09:23:52.318Z,100887.75
2022-11-03T09:26:18.984Z,100897.63
2022-11-03T09:28:45.517Z,100886.97
2022-11-03T09:31:11.916Z,100860.91
2022-11-03T09:33:38.409Z,100867.94
2022-11-03T09:36:05.085Z,100875.19
2022-11-03T09:38:31.481Z,100855.38
2022-11-03T09:40:58.351Z,100845.88
2022-11-03T09:43:24.941Z,100827.13
2022-11-03T09:45:51.533Z,100829.16
2022-11-03T09:48:18.029Z,100827.78
2022-11-03T09:50:53.729Z,100817.19
2022-11-03T09:53:21.366Z,100828.94
2022-11-03T09:55:47.816Z,100823.09
2022-11-03T09:58:16.887Z,100814.75
2022-11-03T10:00:45.087Z,100807.06
2022-11-03T10:03:13.264Z,100804.94
2022-11-03T10:05:40.562Z,100807.28
2022-11-03T10:08:18.487Z,100805.97
2022-11-03T10:10:49.657Z,100788.03
2022-11-03T10:13:33.422Z,100795.34
2022-11-03T10:16:01.935Z,100803.81
2022-11-03T10:18:28.866Z,100789.31
2022-11-03T10:20:55.762Z,100778.00
2022-11-03T10:23:22.356Z,100783.09
2022-11-03T10:25:48.890Z,100781.19
2022-11-03T10:28:21.014Z,100773.03
2022-11-03T10:31:11.727Z,100774.41
2022-11-03T10:33:52.342Z,100747.59
2022-11-03T10:36:18.898Z,100747.28
2022-11-03T10:38:45.702Z,100744.44
2022-11-03T10:41:17.691Z,100736.13
2022-11-03T10:44:05.808Z,100726.78
2022-11-03T10:49:20.611Z,100701.00
2022-11-03T10:51:50.302Z,100701.88
2022-11-03T10:54:18.662Z,100696.13
2022-11-03T10:56:46.265Z,100704.22
2022-11-03T10:59:19.328Z,100682.19
2022-11-03T11:01:46.428Z,100688.91
2022-11-03T11:04:20.648Z,100683.59
2022-11-03T11:06:47.461Z,100684.25
2022-11-03T11:09:25.791Z,100681.41
2022-11-03T11:12:15.132Z,100678.00
2022-11-03T11:14:53.921Z,100677.19
2022-11-03T11:17:52.667Z,100675.09
2022-11-03T11:20:32.753Z,100668.66
2022-11-03T11:23:26.861Z,100676.78
2022-11-03T11:26:08.663Z,100653.31
2022-11-03T11:28:45.997Z,100652.69
2022-11-03T11:31:30.087Z,100649.47
2022-11-03T11:34:18.365Z,100641.81
2022-11-03T11:36:47.346Z,100628.34
2022-11-03T11:39:22.977Z,100621.59
2022-11-03T11:42:04.637Z,100608.16
2022-11-03T11:44:43.191Z,100601.72
2022-11-03T11:47:24.827Z,100594.91
2022-11-03T11:50:06.500Z,100591.94
2022-11-03T11:52:34.777Z,100588.47
2022-11-03T11:55:02.925Z,100597.31
2022-11-03T11:57:32.209Z,100592.31
2022-11-03T11:59:58.773Z,100597.47
2022-11-03T12:02:29.614Z,100596.09
2022-11-03T12:05:04.186Z,100586.19
2022-11-03T12:07:37.095Z,100578.28
2022-11-03T12:10:08.828Z,100582.13
2022-11-03T12:12:35.479Z,100577.13
2022-11-03T12:15:02.096Z,100566.63
2022-11-03T12:17:28.459Z,100566.47
2022-11-03T12:19:55.303Z,100566.78
2022-11-03T12:22:24.897Z,100574.16
2022-11-03T12:24:57.610Z,100567.03
2022-11-03T12:27:24.037Z,100579.03
2022-11-03T12:29:51.595Z,100559.19
2022-11-03T12:32:32.587Z,100565.66
2022-11-03T12:34:59.809Z,100564.44
2022-11-03T12:37:26.250Z,100566.50
2022-11-03T12:39:52.661Z,100558.56
2022-11-03T12:42:20.053Z,100554.75
2022-11-03T12:44:46.631Z,100563.91
2022-11-03T12:47:13.072Z,100557.19
2022-11-03T12:49:39.477Z,100550.16
2022-11-03T12:52:08.264Z,100536.84
2022-11-03T12:54:35.250Z,100546.03
2022-11-03T12:57:01.716Z,100541.63
2022-11-03T12:59:28.418Z,100532.88
2022-11-03T13:01:55.096Z,100542.50
2022-11-03T13:04:21.581Z,100532.50
2022-11-03T13:06:48.157Z,100536.81
2022-11-03T13:09:14.673Z,100525.25
2022-11-03T13:11:59.786Z,100521.31
2022-11-03T13:14:26.668Z,100519.97
2022-11-03T13:16:53.208Z,100510.91
2022-11-03T13:19:19.800Z,100496.47
2022-11-03T13:21:46.308Z,100495.72
2022-11-03T13:24:12.724Z,100472.00
2022-11-03T13:26:39.180Z,100460.22
2022-11-03T13:29:05.622Z,100445.59
2022-11-03T13:31:32.297Z,100434.50
2022-11-03T13:33:58.723Z,100428.31
2022-11-03T13:36:25.216Z,100432.59
2022-11-03T13:38:51.679Z,100425.47
2022-11-03T13:41:18.106Z,100418.53
2022-11-03T13:43:44.494Z,100407.41
2022-11-03T13:46:12.800Z,100409.69
2022-11-03T13:51:25.715Z,100407.97
2022-11-03T13:59:25.253Z,100403.19
2022-11-03T14:07:07.092Z,100408.97
2022-11-03T14:09:33.610Z,100413.09
2022-11-03T14:12:18.626Z,100417.22
2022-11-03T14:14:45.262Z,100422.06
2022-11-03T14:17:12.303Z,100424.97
2022-11-03T14:19:44.739Z,100433.44
2022-11-03T14:22:12.726Z,100432.25
2022-11-03T14:24:39.135Z,100432.38
2022-11-03T14:27:05.541Z,100421.47
2022-11-03T14:29:31.990Z,100432.50
2022-11-03T14:31:58.406Z,100434.28
2022-11-03T14:34:24.925Z,100430.56
2022-11-03T14:36:51.450Z,100429.34
2022-11-03T14:39:17.907Z,100427.75
2022-11-03T14:42:03.017Z,100441.78
2022-11-03T14:44:30.842Z,100428.84
2022-11-03T14:46:57.737Z,100430.50
2022-11-03T14:49:24.196Z,100439.69
2022-11-03T14:51:51.527Z,100438.97
2022-11-03T14:54:18.013Z,100434.88
2022-11-03T14:56:44.415Z,100428.63
2022-11-03T14:59:10.880Z,100437.91
2022-11-03T15:01:38.680Z,100448.53
2022-11-03T15:04:05.406Z,100450.88
2022-11-03T15:06:31.853Z,100460.84
2022-11-03T15:08:58.348Z,100463.28
2022-11-03T15:11:25.206Z,100467.28
2022-11-03T15:13:52.795Z,100467.41
2022-11-03T15:16:19.465Z,100464.88
2022-11-03T15:18:46.150Z,100455.81
2022-11-03T15:21:13.341Z,100454.22
2022-11-03T15:26:26.256Z,100467.38
2022-11-03T15:28:52.650Z,100462.97
2022-11-03T15:31:19.203Z,100454.91
2022-11-03T15:33:45.611Z,100448.97
2022-11-03T15:36:12.241Z,100446.19
2022-11-03T15:38:38.765Z,100451.75
2022-11-03T15:41:17.349Z,100442.84
2022-11-03T15:43:48.427Z,100450.75
2022-11-03T15:46:18.462Z,100456.06
2022-11-03T15:48:45.843Z,100447.56
2022-11-03T15:51:12.337Z,100446.47
2022-11-03T15:53:39.437Z,100438.00
2022-11-03T15:56:06.696Z,100435.44
2022-11-03T15:58:34.371Z,100436.09
2022-11-03T16:01:04.365Z,100439.00
2022-11-03T16:03:32.072Z,100429.06
2022-11-03T16:05:58.832Z,100423.44
2022-11-03T16:08:25.538Z,100422.88
2022-11-03T16:10:57.651Z,100407.09
2022-11-03T16:13:25.456Z,100403.59
2022-11-03T16:15:54.285Z,100402.22
2022-11-03T16:18:21.054Z,100388.19
2022-11-03T16:20:47.502Z,100391.69
2022-11-03T16:23:13.991Z,100390.53
2022-11-03T16:25:41.046Z,100375.09
2022-11-03T16:28:07.762Z,100392.28
2022-11-03T16:30:38.324Z,100404.22
2022-11-03T16:33:05.135Z,100399.41
2022-11-03T16:35:31.568Z,100397.84
2022-11-03T16:37:58.033Z,100387.06
2022-11-03T16:40:24.746Z,100385.56
2022-11-03T16:42:51.376Z,100386.41
2022-11-03T16:45:21.027Z,100373.91
2022-11-03T16:47:48.908Z,100365.81
2022-11-03T16:50:18.388Z,100363.84
2022-11-03T16:52:50.268Z,100353.22
2022-11-03T16:55:18.681Z,100341.34
2022-11-03T16:57:45.876Z,100342.06
2022-11-03T17:00:17.603Z,100344.19
2022-11-03T17:02:44.412Z,100333.94
2022-11-03T17:05:13.445Z,100337.97
2022-11-03T17:07:39.927Z,100340.03
2022-11-03T17:10:07.650Z,100325.25
2022-11-03T17:12:34.084Z,100325.25
2022-11-03T17:15:00.510Z,100321.63
2022-11-03T17:17:26.912Z,100320.75
2022-11-03T17:19:53.417Z,100309.56
2022-11-03T17:22:22.109Z,100303.16
2022-11-03T17:24:48.962Z,100309.34
2022-11-03T17:27:23.035Z,100317.84
2022-11-03T17:29:54.209Z,100323.41
2022-11-03T17:32:29.449Z,100322.13
2022-11-03T17:34:57.260Z,100320.00
2022-11-03T17:37:24.947Z,100314.91
2022-11-03T17:39:51.574Z,100308.03
2022-11-03T17:42:21.268Z,100298.78
2022-11-03T17:44:52.759Z,100302.59
2022-11-03T17:47:20.593Z,100295.78
2022-11-03T17:49:48.727Z,100297.94
2022-11-03T17:52:24.864Z,100308.97
2022-11-03T17:54:57.342Z,100307.47
2022-11-03T17:57:24.659Z,100307.47
2022-11-03T17:59:53.820Z,100305.53
2022-11-03T18:02:28.760Z,100308.09
2022-11-03T18:05:03.134Z,100313.38
2022-11-03T18:07:29.820Z,100311.69
2022-11-03T18:09:56.386Z,100317.72
2022-11-03T18:12:49.597Z,100306.59
2022-11-03T18:15:23.047Z,100298.44
2022-11-03T18:17:49.559Z,100296.53
2022-11-03T18:20:19.749Z,100292.91
2022-11-03T18:22:46.500Z,100283.25
2022-11-03T18:25:18.156Z,100280.19
2022-11-03T18:27:44.911Z,100271.28
2022-11-03T18:30:13.392Z,100269.16
2022-11-03T18:32:45.273Z,100258.78
2022-11-03T18:35:20.105Z,100261.00
2022-11-03T18:37:47.247Z,100242.31
2022-11-03T18:40:15.308Z,100239.56
2022-11-03T18:42:41.907Z,100227.88
2022-11-03T18:45:13.214Z,100214.72
2022-11-03T18:47:40.182Z,100215.78
2022-11-03T18:50:07.731Z,100218.34
2022-11-03T18:52:40.296Z,100215.81
2022-11-03T18:55:12.458Z,100206.88
2022-11-03T18:57:39.666Z,100200.63
2022-11-03T19:00:27.987Z,100186.41
2022-11-03T19:02:54.467Z,100195.63
2022-11-03T19:05:23.431Z,100190.94
2022-11-03T19:07:50.565Z,100180.38
2022-11-03T19:10:22.365Z,100171.44
2022-11-03T19:12:48.792Z,100171.97
2022-11-03T19:15:23.851Z,100170.28
2022-11-03T19:17:54.528Z,100162.25
2022-11-03T19:20:21.003Z,100142.84
2022-11-03T19:22:47.577Z,100140.16
2022-11-03T19:25:17.073Z,100132.66
2022-11-03T19:27:46.880Z,100138.69
2022-11-03T19:30:16.539Z,100123.78
2022-11-03T19:32:48.748Z,100128.31
2022-11-03T19:35:22.022Z,100123.09
2022-11-03T19:37:50.888Z,100119.31
2022-11-03T19:40:19.777Z,100119.94
2022-11-03T19:42:48.561Z,100116.13
2022-11-03T19:45:17.854Z,100106.16
2022-11-03T19:48:22.715Z,100098.09
2022-11-03T19:50:36.621Z,100100.09
2022-11-03T19:53:06.814Z,100094.91
2022-11-03T19:55:36.815Z,100087.41
2022-11-03T19:58:18.607Z,100089.00
2022-11-03T20:00:46.183Z,100077.09
2022-11-03T20:03:13.064Z,100073.81
2022-11-03T20:05:43.927Z,100080.38
2022-11-03T20:08:19.665Z,100072.53
2022-11-03T20:10:47.854Z,100068.63
2022-11-03T20:13:16.775Z,100057.88
2022-11-03T20:15:43.180Z,100048.22
2022-11-03T20:18:12.084Z,100041.22
2022-11-03T20:20:39.590Z,100035.63
2022-11-03T20:23:07.668Z,100030.47
2022-11-03T20:25:36.011Z,100026.75
2022-11-03T20:28:16.252Z,100030.22
2022-11-03T20:30:42.701Z,100014.34
2022-11-03T20:33:17.633Z,100015.44
2022-11-03T20:35:45.630Z,100010.34
2022-11-03T20:38:14.438Z,100005.28
2022-11-03T20:40:41.317Z,99991.69
2022-11-03T20:43:21.091Z,99993.63
2022-11-03T20:45:47.483Z,99995.00
2022-11-03T20:48:13.939Z,100010.09
2022-11-03T20:50:40.652Z,100002.66
2022-11-03T20:53:19.702Z,99996.94
2022-11-03T20:55:46.553Z,100000.94
2022-11-03T20:58:15.981Z,100008.16
2022-11-03T21:00:43.456Z,100003.06
2022-11-03T21:03:31.461Z,99999.56
2022-11-03T21:06:02.274Z,99991.94
2022-11-03T21:08:28.899Z,99996.84
2022-11-03T21:11:15.445Z,99993.16
2022-11-03T21:13:42.050Z,100002.06
2022-11-03T21:16:28.158Z,99999.41
2022-11-03T21:19:13.109Z,99999.38
2022-11-03T21:21:39.670Z,99982.22
2022-11-03T21:24:06.424Z,99997.03
2022-11-03T21:26:35.398Z,99991.34
2022-11-03T21:29:01.818Z,99976.41
2022-11-03T21:31:28.428Z,99985.13
2022-11-03T21:33:55.052Z,99976.84
2022-11-03T21:36:21.642Z,99977.97
2022-11-03T21:38:48.166Z,99977.94
2022-11-03T21:41:33.453Z,99972.25
2022-11-03T21:44:14.833Z,99964.53
2022-11-03T21:46:42.935Z,99968.56
2022-11-03T21:49:28.545Z,99963.16
2022-11-03T21:51:55.172Z,99955.75
2022-11-03T21:54:21.728Z,99961.25
2022-11-03T21:56:48.295Z,99950.59
2022-11-03T21:59:15.019Z,99950.13
2022-11-03T22:01:41.558Z,99949.25
2022-11-03T22:04:08.228Z,99946.19
2022-11-03T22:06:34.753Z,99950.38
2022-11-03T22:09:01.184Z,99939.84
2022-11-03T22:11:27.583Z,99932.41
2022-11-03T22:13:59.505Z,99939.34
2022-11-03T22:16:42.468Z,99932.97
2022-11-03T22:19:30.551Z,99936.56
2022-11-03T22:22:15.515Z,99929.19
2022-11-03T22:25:00.674Z,99934.03
2022-11-03T22:27:28.979Z,99916.00
2022-11-03T22:30:14.057Z,99911.94
2022-11-03T22:32:40.697Z,99912.38
2022-11-03T22:35:27.316Z,99917.56
2022-11-03T22:38:13.780Z,99913.41
2022-11-03T22:40:59.941Z,99910.28
2022-11-03T22:43:46.025Z,99900.72
2022-11-03T22:46:14.226Z,99892.25
2022-11-03T22:48:40.982Z,99887.44
2022-11-03T22:51:09.214Z,99877.06
2022-11-03T22:53:56.274Z,99873.19
2022-11-03T22:56:24.827Z,99874.69
2022-11-03T22:58:52.307Z,99882.06
2022-11-03T23:01:21.081Z,99876.00
2022-11-03T23:03:48.873Z,99882.59
2022-11-03T23:06:19.828Z,99878.78
2022-11-03T23:08:47.583Z,99869.22
2022-11-03T23:11:25.509Z,99864.69
2022-11-03T23:14:03.111Z,99862.63
2022-11-03T23:16:35.310Z,99855.50
2022-11-03T23:19:21.463Z,99858.66
2022-11-03T23:21:50.386Z,99856.38
2022-11-03T23:24:39.212Z,99859.75
2022-11-03T23:27:09.195Z,99862.41
2022-11-03T23:29:35.745Z,99859.50
2022-11-03T23:32:02.487Z,99866.25
2022-11-03T23:34:29.215Z,99870.44
2022-11-03T23:36:55.871Z,99864.94
2022-11-03T23:39:22.352Z,99864.66
2022-11-03T23:41:50.284Z,99873.84
2022-11-03T23:44:17.483Z,99874.44
2022-11-03T23:47:02.933Z,99875.66
2022-11-03T23:49:29.749Z,99889.38
2022-11-03T23:51:56.191Z,99893.44
2022-11-03T23:54:22.627Z,99882.34
2022-11-03T23:57:07.641Z,99888.75
2022-11-03T23:59:34.945Z,99881.31
